Time;durP1;ratioP1;P1;durP2;ratioP2;P2;SDS_P1;SDS_P2;PMS_P1;PMS_P2;Temp;Humidity;BMP_temperature;BMP_pressure;BME280_temperature;BME280_humidity;BME280_pressure;Samples;Min_cycle;Max_cycle;Signal;HPM_P1;HPM_P2
2020/12/18 00:04:51;;;;;;;88.43;5.47;;;5.80;47.60;;;;;;10420150;28;20308;-71
2020/12/18 00:09:54;;;;;;;46.77;4.97;;;5.80;47.60;;;;;;10430196;28;20230;-71
2020/12/18 00:14:56;;;;;;;63.63;5.27;;;5.80;47.70;;;;;;10417995;28;20225;-71
2020/12/18 00:19:59;;;;;;;14.70;4.10;;;5.80;47.40;;;;;;10422424;28;20241;-71
2020/12/18 00:25:01;;;;;;;34.23;4.40;;;5.70;47.50;;;;;;10432128;28;20238;-72
2020/12/18 00:30:03;;;;;;;25.17;3.97;;;5.70;47.50;;;;;;10429246;28;20232;-72
2020/12/18 00:35:08;;;;;;;37.03;4.00;;;5.70;47.60;;;;;;10422254;28;20232;-71
2020/12/18 00:40:10;;;;;;;5.97;3.30;;;5.60;47.50;;;;;;10416432;28;20229;-71
2020/12/18 00:45:12;;;;;;;7.03;3.40;;;5.60;47.40;;;;;;10413510;28;20226;-71
2020/12/18 00:50:16;;;;;;;3.23;3.03;;;5.50;47.40;;;;;;10416670;28;20757;-71
2020/12/18 00:55:18;;;;;;;3.10;2.90;;;5.50;47.60;;;;;;10419090;28;20752;-71
2020/12/18 01:00:20;;;;;;;3.20;3.00;;;5.50;47.80;;;;;;10420461;28;20238;-71
2020/12/18 01:05:24;;;;;;;3.63;3.43;;;5.50;47.80;;;;;;10423583;28;20291;-71
2020/12/18 01:10:26;;;;;;;3.60;3.40;;;5.50;48.00;;;;;;10418922;28;20735;-71
2020/12/18 01:15:28;;;;;;;3.53;3.33;;;5.60;48.00;;;;;;10427891;28;20225;-71
2020/12/18 01:20:31;;;;;;;4.53;4.07;;;5.70;48.10;;;;;;10435243;28;20231;-71
2020/12/18 01:25:33;;;;;;;4.50;4.13;;;5.70;48.00;;;;;;10415159;28;20230;-71
2020/12/18 01:30:35;;;;;;;4.20;3.90;;;5.70;48.00;;;;;;10423184;28;20221;-71
2020/12/18 01:35:38;;;;;;;4.37;4.03;;;5.80;47.80;;;;;;10416505;28;20823;-71
2020/12/18 01:40:40;;;;;;;4.17;3.77;;;5.80;47.70;;;;;;10421601;28;20587;-71
2020/12/18 01:45:43;;;;;;;3.83;3.53;;;5.80;47.70;;;;;;10415605;28;20232;-71
2020/12/18 01:50:46;;;;;;;3.77;3.53;;;5.80;47.50;;;;;;10414001;28;20232;-71
2020/12/18 01:55:49;;;;;;;3.73;3.53;;;5.80;47.40;;;;;;10432544;28;20739;-71
2020/12/18 02:00:52;;;;;;;3.53;3.30;;;5.80;47.40;;;;;;10419484;28;20235;-71
2020/12/18 02:05:56;;;;;;;3.30;3.10;;;5.80;47.50;;;;;;10422130;28;20222;-71
2020/12/18 02:10:58;;;;;;;3.60;3.40;;;5.80;47.70;;;;;;10418525;28;20646;-71
2020/12/18 02:16:00;;;;;;;3.77;3.57;;;5.80;47.60;;;;;;10415190;28;20226;-71
2020/12/18 02:21:04;;;;;;;3.87;3.57;;;5.70;47.60;;;;;;10416712;28;20236;-72
2020/12/18 02:26:09;;;;;;;3.80;3.60;;;5.80;47.80;;;;;;10420027;28;20229;-71
2020/12/18 02:31:11;;;;;;;3.57;3.37;;;5.80;47.90;;;;;;10416142;28;20241;-71
2020/12/18 02:36:13;;;;;;;3.67;3.47;;;5.80;48.00;;;;;;10408592;28;20312;-71
2020/12/18 02:41:16;;;;;;;3.93;3.63;;;5.90;47.90;;;;;;10409301;28;20241;-71
2020/12/18 02:46:19;;;;;;;3.60;3.30;;;5.90;47.80;;;;;;10409928;28;20309;-71
2020/12/18 02:51:21;;;;;;;3.47;3.27;;;5.90;47.70;;;;;;10410960;28;20644;-71
2020/12/18 02:56:25;;;;;;;3.70;3.47;;;6.00;47.90;;;;;;10422291;28;20233;-71
2020/12/18 03:01:27;;;;;;;3.37;3.17;;;6.00;47.80;;;;;;10411551;28;20230;-71
2020/12/18 03:06:30;;;;;;;3.43;3.23;;;6.00;47.70;;;;;;10418394;28;20712;-71
2020/12/18 03:11:33;;;;;;;3.30;3.10;;;6.00;47.60;;;;;;10408623;28;20228;-71
2020/12/18 03:16:38;;;;;;;3.40;3.20;;;6.10;47.70;;;;;;10411984;28;20227;-71
2020/12/18 03:21:40;;;;;;;3.17;2.97;;;6.10;47.60;;;;;;10409007;28;20229;-71
2020/12/18 03:26:43;;;;;;;3.20;3.00;;;6.10;47.60;;;;;;10414890;28;20225;-71
2020/12/18 03:31:45;;;;;;;3.73;3.50;;;6.10;47.60;;;;;;10411101;28;20223;-71
2020/12/18 03:36:47;;;;;;;2.90;2.70;;;6.10;47.70;;;;;;10412982;28;20423;-71
2020/12/18 03:41:50;;;;;;;3.97;3.67;;;6.10;48.40;;;;;;10406816;28;20230;-71
2020/12/18 03:46:53;;;;;;;4.03;3.67;;;6.20;47.90;;;;;;10411235;28;20252;-73
2020/12/18 03:51:55;;;;;;;3.93;3.70;;;6.20;47.70;;;;;;10406578;28;20225;-73
2020/12/18 03:56:58;;;;;;;3.97;3.67;;;6.20;47.90;;;;;;10418046;28;20229;-71
2020/12/18 04:02:00;;;;;;;4.50;4.20;;;6.20;47.60;;;;;;10412591;28;20228;-72
2020/12/18 04:07:03;;;;;;;5.70;4.63;;;6.20;47.60;;;;;;10409716;28;20275;-71
2020/12/18 04:12:06;;;;;;;7.83;4.90;;;6.20;47.70;;;;;;10408939;28;20221;-71
2020/12/18 04:17:08;;;;;;;6.40;5.30;;;6.30;47.90;;;;;;10408529;28;20253;-72
2020/12/18 04:22:10;;;;;;;5.70;5.20;;;6.20;47.70;;;;;;10407568;28;20241;-71
2020/12/18 04:27:13;;;;;;;5.47;4.97;;;6.30;47.90;;;;;;10414608;28;20229;-71
2020/12/18 04:32:16;;;;;;;5.37;4.97;;;6.20;47.80;;;;;;10410145;28;20229;-72
2020/12/18 04:37:18;;;;;;;4.70;4.40;;;6.20;47.60;;;;;;10409393;28;20733;-72
2020/12/18 04:42:21;;;;;;;4.57;4.27;;;6.20;47.60;;;;;;10416458;28;20250;-72
2020/12/18 04:47:25;;;;;;;4.47;4.07;;;6.20;47.60;;;;;;10421447;28;20229;-71
2020/12/18 04:52:29;;;;;;;4.43;4.10;;;6.20;47.90;;;;;;10412786;28;20232;-72
2020/12/18 04:57:36;;;;;;;4.67;4.27;;;6.20;47.90;;;;;;10425538;28;20230;-71
2020/12/18 05:02:39;;;;;;;4.60;4.27;;;6.20;47.60;;;;;;10412917;28;20225;-71
2020/12/18 05:07:41;;;;;;;4.07;3.77;;;6.10;47.50;;;;;;10421120;28;20226;-71
2020/12/18 05:12:44;;;;;;;3.83;3.53;;;6.10;47.50;;;;;;10415690;28;20218;-71
2020/12/18 05:17:47;;;;;;;3.83;3.53;;;6.10;47.70;;;;;;10412040;28;20592;-71
2020/12/18 05:22:51;;;;;;;4.07;3.77;;;6.10;47.60;;;;;;10418175;28;20226;-71
2020/12/18 05:27:56;;;;;;;5.30;4.90;;;6.10;47.70;;;;;;10413916;28;20845;-72
2020/12/18 05:32:58;;;;;;;4.57;4.27;;;6.10;47.70;;;;;;10419782;28;20826;-71
2020/12/18 05:38:00;;;;;;;8.13;7.43;;;6.10;47.60;;;;;;10413079;28;20226;-71
2020/12/18 05:43:07;;;;;;;5.00;4.60;;;6.10;47.60;;;;;;10425473;28;20674;-72
2020/12/18 05:48:10;;;;;;;3.80;3.50;;;6.00;47.70;;;;;;10422587;28;20301;-71
2020/12/18 05:53:13;;;;;;;3.63;3.33;;;6.00;47.90;;;;;;10412446;28;20227;-72
2020/12/18 05:58:16;;;;;;;3.90;3.60;;;6.00;48.10;;;;;;10415530;28;20236;-71
2020/12/18 06:03:26;;;;;;;4.10;3.80;;;6.10;48.10;;;;;;10414495;28;20649;-72
2020/12/18 06:08:30;;;;;;;8.07;7.27;;;6.10;48.10;;;;;;10410115;28;20226;-71
2020/12/18 06:13:37;;;;;;;5.50;5.00;;;6.20;48.30;;;;;;10416868;28;20230;-71
2020/12/18 06:18:44;;;;;;;3.93;3.63;;;6.10;48.20;;;;;;10417574;28;20602;-71
2020/12/18 06:23:49;;;;;;;4.30;4.00;;;6.20;48.20;;;;;;10410329;28;20698;-71
2020/12/18 06:28:53;;;;;;;3.93;3.63;;;6.20;48.20;;;;;;10420030;28;20221;-71
2020/12/18 06:33:57;;;;;;;3.97;3.67;;;6.20;48.20;;;;;;10408879;28;20317;-71
2020/12/18 06:38:59;;;;;;;3.93;3.73;;;6.30;48.20;;;;;;10418762;28;20229;-71
2020/12/18 06:44:02;;;;;;;4.00;3.70;;;6.30;48.00;;;;;;10408349;28;20305;-72
2020/12/18 06:49:05;;;;;;;3.80;3.50;;;6.30;47.90;;;;;;10416343;28;20226;-72
2020/12/18 06:54:11;;;;;;;3.47;3.27;;;6.30;47.80;;;;;;10411326;28;20230;-71
2020/12/18 06:59:22;;;;;;;4.30;4.00;;;6.30;47.90;;;;;;10417533;28;20613;-71
2020/12/18 07:04:24;;;;;;;3.90;3.60;;;6.30;47.90;;;;;;10407177;28;20221;-71
2020/12/18 07:09:27;;;;;;;3.97;3.73;;;6.30;47.80;;;;;;10415081;28;20596;-71
2020/12/18 07:14:31;;;;;;;3.73;3.43;;;6.30;47.80;;;;;;10409786;28;20233;-71
2020/12/18 07:19:40;;;;;;;4.20;3.90;;;6.30;47.80;;;;;;10411731;28;20225;-71
2020/12/18 07:24:42;;;;;;;4.03;3.73;;;6.30;47.90;;;;;;10420721;28;20312;-71
2020/12/18 07:29:45;;;;;;;4.10;3.80;;;6.30;47.80;;;;;;10410963;28;20222;-71
2020/12/18 07:35:04;;;;;;;3.73;3.43;;;6.30;47.90;;;;;;10406810;28;20308;-71
2020/12/18 07:40:06;;;;;;;4.53;4.23;;;6.30;48.10;;;;;;10414459;28;20621;-71
2020/12/18 07:45:10;;;;;;;4.37;4.07;;;6.40;48.10;;;;;;10411198;28;20327;-71
2020/12/18 07:50:13;;;;;;;4.83;4.50;;;6.40;48.20;;;;;;10412807;28;20230;-71
2020/12/18 07:55:15;;;;;;;4.73;4.40;;;6.50;48.30;;;;;;10409267;28;20237;-71
2020/12/18 08:00:18;;;;;;;4.23;3.93;;;6.50;48.40;;;;;;10417360;28;20229;-71
2020/12/18 08:05:24;;;;;;;4.30;4.00;;;6.60;48.40;;;;;;10406435;28;20235;-72
2020/12/18 08:10:26;;;;;;;4.07;3.77;;;6.70;48.30;;;;;;10410873;28;20232;-72
2020/12/18 08:15:29;;;;;;;4.37;4.07;;;6.80;48.40;;;;;;10412556;28;20739;-72
2020/12/18 08:20:31;;;;;;;3.67;3.47;;;6.80;48.40;;;;;;10414705;28;20225;-72
2020/12/18 08:25:33;;;;;;;4.40;4.10;;;6.90;48.60;;;;;;10428284;28;20773;-73
2020/12/18 08:30:38;;;;;;;4.63;4.33;;;7.00;48.70;;;;;;10429343;28;20228;-73
2020/12/18 08:35:41;;;;;;;5.13;4.73;;;7.20;48.90;;;;;;10419552;28;20636;-73
2020/12/18 08:40:43;;;;;;;4.67;4.37;;;7.30;48.70;;;;;;10418991;28;20224;-73
2020/12/18 08:45:46;;;;;;;4.27;3.97;;;7.40;48.30;;;;;;10413578;28;20321;-73
2020/12/18 08:50:58;;;;;;;5.40;4.57;;;7.50;48.30;;;;;;10421445;28;20231;-73
2020/12/18 08:56:06;;;;;;;4.60;4.30;;;7.50;48.20;;;;;;10418812;28;20301;-73
2020/12/18 09:01:23;;;;;;;4.30;4.00;;;7.60;48.10;;;;;;10421184;28;20230;-73
2020/12/18 09:06:32;;;;;;;4.83;4.43;;;7.70;47.90;;;;;;10426168;28;20225;-73
2020/12/18 09:11:34;;;;;;;5.50;5.10;;;7.80;47.80;;;;;;10411594;28;20316;-74
2020/12/18 09:16:38;;;;;;;5.97;5.47;;;7.80;48.00;;;;;;10430867;28;20300;-74
2020/12/18 09:21:40;;;;;;;5.90;5.40;;;7.80;48.00;;;;;;10423524;28;20251;-73
2020/12/18 09:26:42;;;;;;;5.17;4.77;;;7.80;48.20;;;;;;10424421;28;20240;-73
2020/12/18 09:31:46;;;;;;;6.97;6.40;;;7.90;48.20;;;;;;10423896;28;20228;-74
2020/12/18 09:36:48;;;;;;;6.53;5.93;;;8.00;48.20;;;;;;10426145;28;22558;-74
2020/12/18 09:41:52;;;;;;;6.67;6.07;;;8.00;48.20;;;;;;10430752;28;20239;-74
2020/12/18 09:46:55;;;;;;;6.87;6.17;;;8.10;48.20;;;;;;10414567;28;20232;-73
2020/12/18 09:51:57;;;;;;;7.00;6.30;;;8.20;48.10;;;;;;10412247;28;20218;-74
2020/12/18 09:56:59;;;;;;;7.23;6.63;;;8.30;48.10;;;;;;10429594;28;20233;-73
2020/12/18 10:02:02;;;;;;;8.30;7.50;;;8.40;48.30;;;;;;10422397;28;20275;-73
2020/12/18 10:07:04;;;;;;;7.43;6.77;;;8.40;48.10;;;;;;10423353;28;20307;-73
2020/12/18 10:12:06;;;;;;;8.23;7.43;;;8.50;48.10;;;;;;10426760;28;20221;-73
2020/12/18 10:17:10;;;;;;;8.13;7.43;;;8.50;48.10;;;;;;10421700;28;20247;-73
2020/12/18 10:22:12;;;;;;;8.60;7.80;;;8.60;47.90;;;;;;10434661;28;20603;-74
2020/12/18 10:27:15;;;;;;;6.67;6.10;;;8.70;48.20;;;;;;10425441;28;20633;-73
2020/12/18 10:32:18;;;;;;;7.77;7.07;;;8.80;48.20;;;;;;10425015;28;20217;-73
2020/12/18 10:37:22;;;;;;;7.57;6.87;;;8.80;47.70;;;;;;10426756;28;20594;-74
2020/12/18 10:42:24;;;;;;;8.47;7.67;;;8.90;48.10;;;;;;10416115;28;20646;-74
2020/12/18 10:47:27;;;;;;;7.70;7.03;;;9.00;48.30;;;;;;10421043;28;20231;-74
2020/12/18 10:52:29;;;;;;;7.83;7.23;;;9.20;48.20;;;;;;10416147;28;20255;-74
2020/12/18 10:57:31;;;;;;;10.40;8.17;;;9.30;48.10;;;;;;10421147;28;20232;-73
2020/12/18 11:02:35;;;;;;;8.30;7.50;;;9.50;48.20;;;;;;10420469;28;20312;-73
2020/12/18 11:07:38;;;;;;;7.63;6.93;;;9.60;48.10;;;;;;10434887;28;20283;-73
2020/12/18 11:12:40;;;;;;;9.13;8.23;;;9.70;47.90;;;;;;10433199;28;20231;-73
2020/12/18 11:17:43;;;;;;;9.13;8.30;;;9.90;48.00;;;;;;10431683;28;20236;-73
2020/12/18 11:22:46;;;;;;;8.43;7.67;;;10.00;46.60;;;;;;10423221;28;20234;-73
2020/12/18 11:27:48;;;;;;;8.83;8.03;;;10.10;46.70;;;;;;10412936;28;20603;-73
2020/12/18 11:32:51;;;;;;;9.13;8.30;;;10.20;46.90;;;;;;10413440;28;20272;-73
2020/12/18 11:37:53;;;;;;;10.97;9.90;;;10.30;46.40;;;;;;10412007;28;20261;-73
2020/12/18 11:42:55;;;;;;;8.97;8.27;;;10.40;46.10;;;;;;10416821;28;20237;-73
2020/12/18 11:47:59;;;;;;;10.43;9.53;;;10.40;46.30;;;;;;10411019;28;20946;-73
2020/12/18 11:53:01;;;;;;;10.37;9.47;;;10.40;45.90;;;;;;10422272;28;20232;-73
2020/12/18 11:58:04;;;;;;;9.50;8.60;;;10.40;46.10;;;;;;10425732;28;20610;-73
2020/12/18 12:03:07;;;;;;;9.67;8.73;;;10.50;46.10;;;;;;10442061;28;20232;-73
2020/12/18 12:08:09;;;;;;;8.57;7.87;;;10.50;45.90;;;;;;10438379;28;20228;-73
2020/12/18 12:13:11;;;;;;;8.90;8.10;;;10.50;46.10;;;;;;10445954;28;20217;-73
2020/12/18 12:18:14;;;;;;;8.90;8.20;;;10.60;45.90;;;;;;10447175;28;20232;-73
2020/12/18 12:23:16;;;;;;;8.73;7.93;;;10.60;45.40;;;;;;10451346;28;20231;-74
2020/12/18 12:28:18;;;;;;;9.90;9.00;;;10.60;45.50;;;;;;10435935;28;20229;-73
2020/12/18 12:33:22;;;;;;;9.37;8.53;;;10.70;45.40;;;;;;10461147;28;20312;-73
2020/12/18 12:38:24;;;;;;;9.37;8.67;;;10.70;45.30;;;;;;10452643;28;20234;-74
2020/12/18 12:43:27;;;;;;;10.07;8.90;;;10.70;45.50;;;;;;10444809;28;20229;-73
2020/12/18 12:48:30;;;;;;;9.60;8.77;;;10.70;45.60;;;;;;10436655;28;20303;-73
2020/12/18 12:53:32;;;;;;;10.37;9.47;;;10.70;45.00;;;;;;10443918;28;20232;-74
2020/12/18 12:58:35;;;;;;;9.57;8.77;;;10.80;45.30;;;;;;10448388;28;20251;-74
2020/12/18 13:03:38;;;;;;;9.67;8.87;;;10.80;45.50;;;;;;10445338;28;20231;-73
2020/12/18 13:08:40;;;;;;;10.03;9.13;;;10.80;45.30;;;;;;10435149;28;20224;-73
2020/12/18 13:13:42;;;;;;;10.13;9.33;;;10.80;45.50;;;;;;10448897;28;20734;-73
2020/12/18 13:18:46;;;;;;;9.37;8.00;;;10.80;45.50;;;;;;10447082;28;20220;-75
2020/12/18 13:23:48;;;;;;;9.60;8.77;;;10.90;46.70;;;;;;10446109;28;20225;-73
2020/12/18 13:28:50;;;;;;;9.27;8.47;;;10.90;46.00;;;;;;10446127;28;20315;-73
2020/12/18 13:33:53;;;;;;;9.90;9.00;;;11.00;45.70;;;;;;10435555;28;20221;-73
2020/12/18 13:38:57;;;;;;;9.17;8.37;;;11.00;45.20;;;;;;10440948;28;20225;-72
2020/12/18 13:43:59;;;;;;;9.30;8.40;;;11.00;45.00;;;;;;10440961;28;20236;-73
2020/12/18 13:49:02;;;;;;;10.33;8.87;;;10.90;45.30;;;;;;10433585;28;20258;-72
2020/12/18 13:54:05;;;;;;;9.27;8.50;;;10.90;45.10;;;;;;10444446;28;20705;-73
2020/12/18 13:59:07;;;;;;;9.67;8.77;;;10.90;45.30;;;;;;10434713;28;20312;-72
2020/12/18 14:04:11;;;;;;;9.03;8.23;;;11.00;45.30;;;;;;10440170;28;20242;-73
2020/12/18 14:09:14;;;;;;;9.20;8.40;;;10.90;44.90;;;;;;10436833;28;20220;-71
2020/12/18 14:14:17;;;;;;;9.10;8.23;;;10.90;45.10;;;;;;10441977;28;20229;-71
2020/12/18 14:19:20;;;;;;;9.27;8.37;;;10.90;44.90;;;;;;10434512;28;20229;-72
2020/12/18 14:24:23;;;;;;;9.17;8.37;;;10.90;44.90;;;;;;10441306;28;20225;-72
2020/12/18 14:29:28;;;;;;;10.40;9.17;;;10.90;45.10;;;;;;10440247;28;20732;-71
2020/12/18 14:34:33;;;;;;;11.10;9.40;;;10.90;45.10;;;;;;10446815;28;20237;-71
2020/12/18 14:39:37;;;;;;;9.97;8.53;;;10.80;44.80;;;;;;10437210;28;20221;-71
2020/12/18 14:44:39;;;;;;;9.70;8.70;;;10.80;44.90;;;;;;10447354;28;20225;-71
2020/12/18 14:49:43;;;;;;;8.70;7.90;;;10.80;45.00;;;;;;10427710;28;20865;-71
2020/12/18 14:54:45;;;;;;;7.27;6.57;;;10.80;44.90;;;;;;10438312;28;20228;-72
2020/12/18 14:59:47;;;;;;;8.53;7.73;;;10.80;44.90;;;;;;10435529;28;20225;-72
2020/12/18 15:04:50;;;;;;;7.30;6.70;;;10.80;44.90;;;;;;10443576;28;20272;-69
2020/12/18 15:09:53;;;;;;;10.23;9.00;;;10.80;46.70;;;;;;10427380;28;20216;-71
2020/12/18 15:14:56;;;;;;;9.20;8.40;;;10.80;46.60;;;;;;10432967;28;20236;-71
2020/12/18 15:19:59;;;;;;;10.30;9.40;;;10.90;46.00;;;;;;10439956;28;20230;-71
2020/12/18 15:25:01;;;;;;;10.10;8.87;;;11.00;45.20;;;;;;10434407;28;20755;-72
2020/12/18 15:30:04;;;;;;;9.33;8.43;;;11.00;44.90;;;;;;10439570;28;20227;-72
2020/12/18 15:35:07;;;;;;;9.90;9.00;;;11.00;44.70;;;;;;10439036;28;20231;-72
2020/12/18 15:40:10;;;;;;;9.27;8.37;;;10.90;44.40;;;;;;10436061;28;20279;-72
2020/12/18 15:45:13;;;;;;;9.40;8.60;;;10.80;44.20;;;;;;10433050;28;20229;-72
2020/12/18 15:50:16;;;;;;;8.20;7.53;;;10.60;44.80;;;;;;10441514;28;20217;-72
2020/12/18 15:55:18;;;;;;;11.03;10.13;;;10.50;44.10;;;;;;10441098;28;20717;-72
2020/12/18 16:00:20;;;;;;;11.43;10.53;;;10.30;44.00;;;;;;10437535;28;20227;-72
2020/12/18 16:05:23;;;;;;;9.30;8.57;;;10.10;44.00;;;;;;10425326;28;20237;-72
2020/12/18 16:10:27;;;;;;;9.17;8.37;;;10.00;43.80;;;;;;10425551;28;20224;-72
2020/12/18 16:15:38;;;;;;;10.07;9.17;;;9.70;44.60;;;;;;10434815;28;20737;-71
2020/12/18 16:20:41;;;;;;;12.90;11.70;;;9.50;44.90;;;;;;10417974;28;20588;-72
2020/12/18 16:25:43;;;;;;;11.77;10.77;;;9.30;45.10;;;;;;10428130;28;20227;-72
2020/12/18 16:30:46;;;;;;;11.47;10.37;;;9.10;45.30;;;;;;10410639;28;20221;-72
2020/12/18 16:35:50;;;;;;;11.37;10.37;;;9.00;45.50;;;;;;10427477;28;20233;-71
2020/12/18 16:40:53;;;;;;;10.00;9.10;;;8.90;45.60;;;;;;10429244;28;20225;-72
2020/12/18 16:45:55;;;;;;;10.27;9.27;;;8.70;45.30;;;;;;10426256;28;20239;-72
2020/12/18 16:50:58;;;;;;;10.17;9.27;;;8.60;45.20;;;;;;10424282;28;20228;-72
2020/12/18 16:56:01;;;;;;;9.23;8.53;;;8.50;45.00;;;;;;10428223;28;20251;-72
2020/12/18 17:01:03;;;;;;;8.40;7.70;;;8.40;45.90;;;;;;10422053;28;20249;-72
2020/12/18 17:06:07;;;;;;;7.73;7.07;;;8.10;45.10;;;;;;10435487;28;20712;-72
2020/12/18 17:11:13;;;;;;;8.13;7.43;;;8.00;45.20;;;;;;10423377;28;20312;-73
2020/12/18 17:16:16;;;;;;;8.57;7.77;;;7.80;45.20;;;;;;10419638;28;20352;-72
2020/12/18 17:21:25;;;;;;;7.67;6.97;;;7.70;45.50;;;;;;10428274;28;20308;-72
2020/12/18 17:26:27;;;;;;;15.60;14.00;;;7.60;45.80;;;;;;10427199;28;20237;-72
2020/12/18 17:31:30;;;;;;;11.40;10.30;;;7.50;45.90;;;;;;10433582;28;20222;-72
2020/12/18 17:36:33;;;;;;;8.33;7.63;;;7.50;46.00;;;;;;10436250;28;20236;-72
2020/12/18 17:41:37;;;;;;;8.27;7.57;;;7.40;46.10;;;;;;10433360;28;20229;-72
2020/12/18 17:46:40;;;;;;;7.20;6.60;;;7.40;46.30;;;;;;10412913;28;20237;-72
2020/12/18 17:51:43;;;;;;;9.10;8.40;;;7.50;46.30;;;;;;10430891;28;20320;-72
2020/12/18 17:56:45;;;;;;;8.13;7.43;;;7.60;46.40;;;;;;10427982;28;20581;-72
2020/12/18 18:01:47;;;;;;;7.13;6.53;;;7.60;46.20;;;;;;10423207;28;20252;-72
2020/12/18 18:06:50;;;;;;;6.77;6.17;;;7.70;46.10;;;;;;10422988;28;20232;-72
2020/12/18 18:11:58;;;;;;;7.80;7.10;;;7.70;45.90;;;;;;10416108;28;20229;-72
2020/12/18 18:17:00;;;;;;;7.43;6.83;;;7.60;45.70;;;;;;10425499;28;20654;-72
2020/12/18 18:22:04;;;;;;;7.30;6.70;;;7.60;45.60;;;;;;10420880;28;20253;-74
2020/12/18 18:27:06;;;;;;;6.30;5.80;;;7.50;45.90;;;;;;10436055;28;20237;-73
2020/12/18 18:32:08;;;;;;;8.80;8.03;;;7.40;46.00;;;;;;10411837;28;20229;-74
2020/12/18 18:37:12;;;;;;;10.60;9.50;;;7.40;45.90;;;;;;10427780;28;20230;-73
2020/12/18 18:42:14;;;;;;;7.50;6.80;;;7.40;45.90;;;;;;10433124;28;20217;-73
2020/12/18 18:47:16;;;;;;;9.90;9.00;;;7.30;46.00;;;;;;10429884;28;20229;-73
2020/12/18 18:52:19;;;;;;;8.50;7.03;;;7.30;46.10;;;;;;10424384;28;20226;-73
2020/12/18 18:57:22;;;;;;;8.73;7.93;;;7.30;46.10;;;;;;10422326;28;20593;-73
2020/12/18 19:02:24;;;;;;;9.00;8.17;;;7.20;46.10;;;;;;10423146;28;20233;-73
2020/12/18 19:07:27;;;;;;;8.03;7.33;;;7.20;46.20;;;;;;10430065;28;20324;-73
2020/12/18 19:12:29;;;;;;;7.47;6.70;;;7.10;46.10;;;;;;10425532;28;20270;-73
2020/12/18 19:17:31;;;;;;;7.67;6.97;;;7.10;46.10;;;;;;10423042;28;20231;-72
2020/12/18 19:22:35;;;;;;;7.67;6.97;;;7.10;46.10;;;;;;10445407;28;20256;-73
2020/12/18 19:27:37;;;;;;;12.13;6.73;;;7.00;46.00;;;;;;10421263;28;20243;-72
2020/12/18 19:32:40;;;;;;;8.67;7.77;;;7.00;46.10;;;;;;10424959;28;20221;-73
2020/12/18 19:37:43;;;;;;;8.50;7.80;;;6.90;46.20;;;;;;10418038;28;20221;-72
2020/12/18 19:42:45;;;;;;;7.43;6.83;;;6.90;46.50;;;;;;10415691;28;20308;-73
2020/12/18 19:47:49;;;;;;;7.03;6.43;;;6.90;46.60;;;;;;10413655;28;20222;-72
2020/12/18 19:52:52;;;;;;;6.90;6.30;;;6.90;46.50;;;;;;10418745;28;20222;-73
2020/12/18 19:57:55;;;;;;;7.70;7.07;;;7.00;46.60;;;;;;10427561;28;20270;-73
2020/12/18 20:02:57;;;;;;;6.67;6.10;;;7.00;46.70;;;;;;10424283;28;20639;-72
2020/12/18 20:08:01;;;;;;;9.50;8.53;;;7.10;46.70;;;;;;10429450;28;20240;-75
2020/12/18 20:13:03;;;;;;;7.90;7.20;;;7.20;46.60;;;;;;10443469;28;20224;-74
2020/12/18 20:18:09;;;;;;;9.13;7.03;;;7.20;46.30;;;;;;10442283;28;20225;-74
2020/12/18 20:23:12;;;;;;;8.53;7.83;;;7.10;46.20;;;;;;10437436;28;20240;-75
2020/12/18 20:28:14;;;;;;;8.00;7.30;;;7.00;46.20;;;;;;10428099;28;20602;-75
2020/12/18 20:33:16;;;;;;;8.27;7.57;;;7.00;46.30;;;;;;10441370;28;20232;-74
2020/12/18 20:38:19;;;;;;;7.13;6.53;;;7.00;46.30;;;;;;10431445;28;20221;-75
2020/12/18 20:43:23;;;;;;;9.43;6.70;;;6.90;46.40;;;;;;10443460;28;20229;-74
2020/12/18 20:48:25;;;;;;;7.10;6.40;;;6.90;46.30;;;;;;10447351;28;20225;-75
2020/12/18 20:53:28;;;;;;;7.80;7.20;;;6.90;46.40;;;;;;10433551;28;20225;-75
2020/12/18 20:58:32;;;;;;;7.27;6.60;;;6.80;46.20;;;;;;10450215;28;20232;-75
2020/12/18 21:03:34;;;;;;;6.30;5.80;;;6.80;46.20;;;;;;10429158;28;20228;-75
2020/12/18 21:08:38;;;;;;;5.67;5.17;;;6.70;46.20;;;;;;10451935;28;20716;-75
2020/12/18 21:13:40;;;;;;;6.93;6.33;;;6.60;46.40;;;;;;10432660;28;20311;-75
2020/12/18 21:18:42;;;;;;;6.73;6.13;;;6.60;46.20;;;;;;10426057;28;20224;-75
2020/12/18 21:23:45;;;;;;;6.77;6.27;;;6.50;46.30;;;;;;10431879;28;20312;-76
2020/12/18 21:28:47;;;;;;;6.20;5.70;;;6.40;46.50;;;;;;10443340;28;20217;-75
2020/12/18 21:33:50;;;;;;;6.70;5.80;;;6.30;46.50;;;;;;10428498;28;20251;-76
2020/12/18 21:38:54;;;;;;;7.17;6.33;;;6.30;46.60;;;;;;10436925;28;20696;-75
2020/12/18 21:43:56;;;;;;;8.10;6.70;;;6.20;46.70;;;;;;10433641;28;20822;-76
2020/12/18 21:48:59;;;;;;;18.87;6.83;;;6.20;46.70;;;;;;10440275;28;20251;-75
2020/12/18 21:54:02;;;;;;;7.03;6.43;;;6.20;46.60;;;;;;10430049;28;20721;-76
2020/12/18 21:59:04;;;;;;;10.50;6.43;;;6.10;46.90;;;;;;10423155;28;20221;-75
2020/12/18 22:04:06;;;;;;;8.43;6.70;;;6.00;46.90;;;;;;10428648;28;20229;-76
2020/12/18 22:09:09;;;;;;;7.57;6.37;;;6.00;46.90;;;;;;10423492;28;20316;-76
2020/12/18 22:14:12;;;;;;;7.07;6.47;;;6.00;47.10;;;;;;10445921;28;20661;-76
2020/12/18 22:19:14;;;;;;;8.60;6.20;;;6.00;47.20;;;;;;10431996;28;20221;-76
2020/12/18 22:24:17;;;;;;;8.00;6.73;;;6.00;47.10;;;;;;10427189;28;21339;-76
2020/12/18 22:29:19;;;;;;;7.90;6.80;;;6.10;47.30;;;;;;10419919;28;20709;-76
2020/12/18 22:34:21;;;;;;;10.87;7.27;;;6.10;47.10;;;;;;10432239;28;21042;-76
2020/12/18 22:39:25;;;;;;;7.20;6.50;;;6.10;47.10;;;;;;10435866;28;20240;-76
2020/12/18 22:44:27;;;;;;;7.57;6.67;;;6.10;47.80;;;;;;10435051;28;20248;-76
2020/12/18 22:49:30;;;;;;;10.13;6.70;;;6.00;47.10;;;;;;10430611;28;20255;-76
2020/12/18 22:54:33;;;;;;;7.43;6.83;;;6.00;47.10;;;;;;10431148;28;20348;-76
2020/12/18 22:59:35;;;;;;;7.37;6.77;;;6.00;47.20;;;;;;10433601;28;20228;-76
2020/12/18 23:04:38;;;;;;;7.73;6.93;;;6.00;47.20;;;;;;10438541;28;20233;-76
2020/12/18 23:09:41;;;;;;;7.20;6.60;;;6.10;47.20;;;;;;10430475;28;20308;-76
2020/12/18 23:14:43;;;;;;;7.70;7.07;;;6.10;47.10;;;;;;10439378;28;20232;-76
2020/12/18 23:19:46;;;;;;;9.90;7.10;;;6.00;46.90;;;;;;10428142;28;20260;-76
2020/12/18 23:24:50;;;;;;;8.77;6.67;;;6.00;46.90;;;;;;10423820;28;20233;-76
2020/12/18 23:29:53;;;;;;;6.47;5.97;;;5.90;46.90;;;;;;10435540;28;20229;-76
2020/12/18 23:34:55;;;;;;;17.30;6.70;;;5.90;47.00;;;;;;10421829;28;20359;-76
2020/12/18 23:39:58;;;;;;;6.43;5.83;;;5.80;47.10;;;;;;10434801;28;20236;-76
2020/12/18 23:45:01;;;;;;;6.33;5.83;;;5.80;47.30;;;;;;10423787;28;20286;-76
2020/12/18 23:50:06;;;;;;;6.40;5.90;;;5.80;47.20;;;;;;10444969;28;20283;-75
2020/12/18 23:55:10;;;;;;;7.23;6.40;;;5.80;47.10;;;;;;10432695;28;20236;-76
